メインページ
METAR-TAF:

METAR-TAF

空港 :

シカゴ・オヘア国際空港

シカゴ, イリノイ州, アメリカ合衆国

緯度: 41-58-47N, 経度: 087-54-16W, 海抜: 203m

現時点の気象観測

当レポートは20分前の01:51(UTC)に作成
の風 5kt
気温 2°C
湿度 100%
気圧 1023 hPa
視程: 0.4km
高度200ftの曇り

METAR: KORD 150151Z 01005KT 1/4SM R10L/3500VP6000FT BR OVC002 02/02 A3022 RMK AO2 SFC VIS 1 SLP239 T00170017

時間: 20:11 (02:11 UTC)

予報

当レポートは1時間22分前の00:49(UTC)に作成
予報は15日の 01時(UTC)から 16日の 06時(UTC)まで有効
北東の風 7kt
視程: 1.6km
高度300ftの曇り
15日の 01時(UTC)から 15日の 04時(UTC)まで一時的に
視程: 0.8km
高度200ftの曇り
15日の 0400時(UTC)から
北/北東の風 7kt
視程: 1.6km
高度300ftの曇り
15日の 04時(UTC)から 15日の 08時(UTC)まで一時的に
視程: 0.8km
高度200ftの曇り
15日の 1500時(UTC)から
北/北東の風 8kt
視程: 9.7km
高度500ftの雲は散在している
高度25000ftの千切れ雲あり
15日の 1800時(UTC)から
北東の風 10kt
視程: 10km
高度1000ftの雲はほとんどない
高度25000ftの雲は散在している
16日の 0200時(UTC)から
北/北東の風 5kt
視程: 8.0km
高度900ftの雲はほとんどない

TAF: KORD 150049Z 1501/1606 04007KT 1SM BR OVC003 TEMPO 1501/1504 1/2SM FG OVC002 FM150400 03007KT 1SM BR OVC003 TEMPO 1504/1508 1/2SM FG OVC002 FM151500 03008KT 6SM BR SCT005 BKN250 FM151800 04010KT P6SM FEW010 SCT250 FM160200 03005KT 5SM BR FEW009

4,000以上の空港の気象観測と天気予報(METAR報とTAF報)

利用可能な観測所は地図上に黄色い丸と赤い丸で示す。

丸の上にカーソルを重ねると観測所名を参照できる。

次にクリックすると気象観測と天気予報を参照できる。

マップの切り替え:黒色「×」印の緑ボタンをクリックして拡大、「-」印の緑ボタンをクリックして縮小、緑色の三角印をクリックして隣りの地図に切り替え


METAR-TAF: